sensor_id;sensor_type;location;lat;lon;timestamp;temperature;humidity
18597;DHT22;9428;50.950;6.912;2023-04-01T00:00:08;11.40;99.90
18597;DHT22;9428;50.950;6.912;2023-04-01T00:02:56;11.50;99.90
18597;DHT22;9428;50.950;6.912;2023-04-01T00:05:43;11.50;99.90
18597;DHT22;9428;50.950;6.912;2023-04-01T00:08:31;11.60;99.90
18597;DHT22;9428;50.950;6.912;2023-04-01T00:11:18;11.50;99.90
18597;DHT22;9428;50.950;6.912;2023-04-01T00:14:07;11.20;99.90
18597;DHT22;9428;50.950;6.912;2023-04-01T00:16:54;11.50;99.90
18597;DHT22;9428;50.950;6.912;2023-04-01T00:19:41;11.50;99.90
18597;DHT22;9428;50.950;6.912;2023-04-01T00:22:29;11.50;99.90
18597;DHT22;9428;50.950;6.912;2023-04-01T00:25:16;11.50;99.90
18597;DHT22;9428;50.950;6.912;2023-04-01T00:28:04;11.60;99.90
18597;DHT22;9428;50.950;6.912;2023-04-01T00:30:52;12.20;99.90
18597;DHT22;9428;50.950;6.912;2023-04-01T00:33:40;11.50;99.90
18597;DHT22;9428;50.950;6.912;2023-04-01T00:36:27;11.50;99.90
18597;DHT22;9428;50.950;6.912;2023-04-01T00:39:14;11.50;99.90
18597;DHT22;9428;50.950;6.912;2023-04-01T00:42:03;11.50;99.90
18597;DHT22;9428;50.950;6.912;2023-04-01T00:44:52;11.60;99.90
18597;DHT22;9428;50.950;6.912;2023-04-01T00:47:40;12.00;99.90
18597;DHT22;9428;50.950;6.912;2023-04-01T00:50:29;11.50;99.90
18597;DHT22;9428;50.950;6.912;2023-04-01T00:53:19;11.50;99.90
18597;DHT22;9428;50.950;6.912;2023-04-01T00:56:10;11.60;99.90
18597;DHT22;9428;50.950;6.912;2023-04-01T00:59:01;11.60;99.90
18597;DHT22;9428;50.950;6.912;2023-04-01T01:01:49;11.60;99.90
18597;DHT22;9428;50.950;6.912;2023-04-01T01:04:38;11.50;99.90
18597;DHT22;9428;50.950;6.912;2023-04-01T01:07:29;11.50;99.90
18597;DHT22;9428;50.950;6.912;2023-04-01T01:10:23;11.50;99.90
18597;DHT22;9428;50.950;6.912;2023-04-01T01:13:15;11.60;99.90
18597;DHT22;9428;50.950;6.912;2023-04-01T01:16:06;11.60;99.90
18597;DHT22;9428;50.950;6.912;2023-04-01T01:19:06;11.60;99.90
18597;DHT22;9428;50.950;6.912;2023-04-01T01:22:26;11.50;99.90
18597;DHT22;9428;50.950;6.912;2023-04-01T01:25:25;11.50;99.90
18597;DHT22;9428;50.950;6.912;2023-04-01T01:28:28;12.10;99.90
18597;DHT22;9428;50.950;6.912;2023-04-01T01:31:22;11.50;99.90
18597;DHT22;9428;50.950;6.912;2023-04-01T01:34:15;11.50;99.90
18597;DHT22;9428;50.950;6.912;2023-04-01T01:37:09;12.00;99.90
18597;DHT22;9428;50.950;6.912;2023-04-01T01:40:00;11.40;99.90
18597;DHT22;9428;50.950;6.912;2023-04-01T01:42:51;11.40;99.90
18597;DHT22;9428;50.950;6.912;2023-04-01T01:45:44;11.40;99.90
18597;DHT22;9428;50.950;6.912;2023-04-01T01:48:32;11.40;99.90
18597;DHT22;9428;50.950;6.912;2023-04-01T01:51:21;11.40;99.90
18597;DHT22;9428;50.950;6.912;2023-04-01T01:54:13;11.40;99.90
18597;DHT22;9428;50.950;6.912;2023-04-01T01:57:04;11.30;99.90
18597;DHT22;9428;50.950;6.912;2023-04-01T01:59:55;11.30;99.90
18597;DHT22;9428;50.950;6.912;2023-04-01T02:02:46;11.30;99.90
18597;DHT22;9428;50.950;6.912;2023-04-01T02:05:33;11.20;99.90
18597;DHT22;9428;50.950;6.912;2023-04-01T02:08:26;11.10;99.90
18597;DHT22;9428;50.950;6.912;2023-04-01T02:11:17;11.50;99.90
18597;DHT22;9428;50.950;6.912;2023-04-01T02:14:08;11.10;99.90
18597;DHT22;9428;50.950;6.912;2023-04-01T02:17:02;11.30;99.90
18597;DHT22;9428;50.950;6.912;2023-04-01T02:19:53;11.20;99.90
18597;DHT22;9428;50.950;6.912;2023-04-01T02:22:44;11.00;99.90
18597;DHT22;9428;50.950;6.912;2023-04-01T02:25:35;10.90;99.90
18597;DHT22;9428;50.950;6.912;2023-04-01T02:28:24;10.90;99.90
18597;DHT22;9428;50.950;6.912;2023-04-01T02:31:13;11.00;99.90
18597;DHT22;9428;50.950;6.912;2023-04-01T02:34:02;10.80;99.90
18597;DHT22;9428;50.950;6.912;2023-04-01T02:36:50;10.80;99.90
18597;DHT22;9428;50.950;6.912;2023-04-01T02:39:39;10.80;99.90
18597;DHT22;9428;50.950;6.912;2023-04-01T02:42:26;11.50;99.90
18597;DHT22;9428;50.950;6.912;2023-04-01T02:45:15;10.90;99.90
18597;DHT22;9428;50.950;6.912;2023-04-01T02:48:03;10.80;99.90
18597;DHT22;9428;50.950;6.912;2023-04-01T02:50:50;10.70;99.90
18597;DHT22;9428;50.950;6.912;2023-04-01T02:53:37;10.70;99.90
18597;DHT22;9428;50.950;6.912;2023-04-01T02:56:24;10.80;99.90
18597;DHT22;9428;50.950;6.912;2023-04-01T02:59:12;10.90;99.90
18597;DHT22;9428;50.950;6.912;2023-04-01T03:02:01;10.80;99.90
18597;DHT22;9428;50.950;6.912;2023-04-01T03:04:48;10.80;99.90
18597;DHT22;9428;50.950;6.912;2023-04-01T03:07:35;10.80;99.90
18597;DHT22;9428;50.950;6.912;2023-04-01T03:10:23;10.80;99.90
18597;DHT22;9428;50.950;6.912;2023-04-01T03:13:10;10.70;99.90
18597;DHT22;9428;50.950;6.912;2023-04-01T03:15:57;10.70;99.90
18597;DHT22;9428;50.950;6.912;2023-04-01T03:18:46;10.80;99.90
18597;DHT22;9428;50.950;6.912;2023-04-01T03:21:35;10.80;99.90
18597;DHT22;9428;50.950;6.912;2023-04-01T03:24:22;10.80;99.90
18597;DHT22;9428;50.950;6.912;2023-04-01T03:27:09;10.80;99.90
18597;DHT22;9428;50.950;6.912;2023-04-01T03:29:56;10.80;99.90
18597;DHT22;9428;50.950;6.912;2023-04-01T03:32:44;10.80;99.90
18597;DHT22;9428;50.950;6.912;2023-04-01T03:35:33;10.80;99.90
18597;DHT22;9428;50.950;6.912;2023-04-01T03:38:21;10.80;99.90
18597;DHT22;9428;50.950;6.912;2023-04-01T03:41:12;10.70;99.90
18597;DHT22;9428;50.950;6.912;2023-04-01T03:43:59;10.70;99.90
18597;DHT22;9428;50.950;6.912;2023-04-01T03:46:46;10.80;99.90
18597;DHT22;9428;50.950;6.912;2023-04-01T03:49:34;10.80;99.90
18597;DHT22;9428;50.950;6.912;2023-04-01T03:52:22;10.40;99.90
18597;DHT22;9428;50.950;6.912;2023-04-01T03:55:09;10.80;99.90
18597;DHT22;9428;50.950;6.912;2023-04-01T03:57:57;10.80;99.90
18597;DHT22;9428;50.950;6.912;2023-04-01T04:00:44;10.90;99.90
18597;DHT22;9428;50.950;6.912;2023-04-01T04:03:31;10.80;99.90
18597;DHT22;9428;50.950;6.912;2023-04-01T04:06:19;11.10;99.90
18597;DHT22;9428;50.950;6.912;2023-04-01T04:09:08;10.90;99.90
18597;DHT22;9428;50.950;6.912;2023-04-01T04:11:55;10.90;99.90
18597;DHT22;9428;50.950;6.912;2023-04-01T04:14:42;10.90;99.90
18597;DHT22;9428;50.950;6.912;2023-04-01T04:17:29;10.90;99.90
18597;DHT22;9428;50.950;6.912;2023-04-01T04:20:17;11.10;99.90
18597;DHT22;9428;50.950;6.912;2023-04-01T04:23:04;10.90;99.90
18597;DHT22;9428;50.950;6.912;2023-04-01T04:25:57;11.40;99.90
18597;DHT22;9428;50.950;6.912;2023-04-01T04:28:45;10.90;99.90
18597;DHT22;9428;50.950;6.912;2023-04-01T04:31:32;10.90;99.90
18597;DHT22;9428;50.950;6.912;2023-04-01T04:34:19;10.90;99.90
18597;DHT22;9428;50.950;6.912;2023-04-01T04:37:08;10.80;99.90
18597;DHT22;9428;50.950;6.912;2023-04-01T04:39:55;10.90;99.90
18597;DHT22;9428;50.950;6.912;2023-04-01T04:42:43;10.80;99.90
18597;DHT22;9428;50.950;6.912;2023-04-01T04:45:31;11.20;99.90
18597;DHT22;9428;50.950;6.912;2023-04-01T04:48:18;10.70;99.90
18597;DHT22;9428;50.950;6.912;2023-04-01T04:51:06;10.70;99.90
18597;DHT22;9428;50.950;6.912;2023-04-01T04:53:53;10.70;99.90
18597;DHT22;9428;50.950;6.912;2023-04-01T04:56:40;10.70;99.90
18597;DHT22;9428;50.950;6.912;2023-04-01T04:59:30;10.70;99.90
18597;DHT22;9428;50.950;6.912;2023-04-01T05:02:17;10.60;99.90
18597;DHT22;9428;50.950;6.912;2023-04-01T05:05:06;10.60;99.90
18597;DHT22;9428;50.950;6.912;2023-04-01T05:07:53;10.70;99.90
18597;DHT22;9428;50.950;6.912;2023-04-01T05:10:40;10.70;99.90
18597;DHT22;9428;50.950;6.912;2023-04-01T05:13:28;10.60;99.90
18597;DHT22;9428;50.950;6.912;2023-04-01T05:16:17;10.60;99.90
18597;DHT22;9428;50.950;6.912;2023-04-01T05:19:05;10.70;99.90
18597;DHT22;9428;50.950;6.912;2023-04-01T05:21:52;11.10;99.90
18597;DHT22;9428;50.950;6.912;2023-04-01T05:24:39;11.40;99.90
18597;DHT22;9428;50.950;6.912;2023-04-01T05:27:27;10.60;99.90
18597;DHT22;9428;50.950;6.912;2023-04-01T05:30:14;10.70;99.90
18597;DHT22;9428;50.950;6.912;2023-04-01T05:33:03;10.60;99.90
18597;DHT22;9428;50.950;6.912;2023-04-01T05:35:50;10.60;99.90
18597;DHT22;9428;50.950;6.912;2023-04-01T05:38:37;10.60;99.90
18597;DHT22;9428;50.950;6.912;2023-04-01T05:41:24;10.50;99.90
18597;DHT22;9428;50.950;6.912;2023-04-01T05:44:12;10.50;99.90
18597;DHT22;9428;50.950;6.912;2023-04-01T05:46:59;10.50;99.90
18597;DHT22;9428;50.950;6.912;2023-04-01T05:49:48;10.40;99.90
18597;DHT22;9428;50.950;6.912;2023-04-01T05:52:35;10.40;99.90
18597;DHT22;9428;50.950;6.912;2023-04-01T05:55:22;10.50;99.90
18597;DHT22;9428;50.950;6.912;2023-04-01T05:58:10;10.50;99.90
18597;DHT22;9428;50.950;6.912;2023-04-01T06:01:01;10.80;99.90
18597;DHT22;9428;50.950;6.912;2023-04-01T06:03:49;10.50;99.90
18597;DHT22;9428;50.950;6.912;2023-04-01T06:06:37;10.90;99.90
18597;DHT22;9428;50.950;6.912;2023-04-01T06:09:28;10.80;99.90
18597;DHT22;9428;50.950;6.912;2023-04-01T06:12:36;10.40;99.90
18597;DHT22;9428;50.950;6.912;2023-04-01T06:15:33;10.40;99.90
18597;DHT22;9428;50.950;6.912;2023-04-01T06:18:41;10.60;99.90
18597;DHT22;9428;50.950;6.912;2023-04-01T06:28:02;10.60;99.90
18597;DHT22;9428;50.950;6.912;2023-04-01T06:31:00;10.50;99.90
18597;DHT22;9428;50.950;6.912;2023-04-01T06:33:59;10.70;99.90
18597;DHT22;9428;50.950;6.912;2023-04-01T06:37:15;10.50;99.90
18597;DHT22;9428;50.950;6.912;2023-04-01T06:40:35;10.50;99.90
18597;DHT22;9428;50.950;6.912;2023-04-01T06:43:34;10.60;99.90
18597;DHT22;9428;50.950;6.912;2023-04-01T06:46:31;10.70;99.90
18597;DHT22;9428;50.950;6.912;2023-04-01T06:49:33;10.60;99.90
18597;DHT22;9428;50.950;6.912;2023-04-01T06:52:29;11.00;99.90
18597;DHT22;9428;50.950;6.912;2023-04-01T06:55:26;10.70;99.90
18597;DHT22;9428;50.950;6.912;2023-04-01T06:58:20;10.70;99.90
18597;DHT22;9428;50.950;6.912;2023-04-01T07:01:12;10.80;99.90
18597;DHT22;9428;50.950;6.912;2023-04-01T07:04:05;10.70;99.90
18597;DHT22;9428;50.950;6.912;2023-04-01T07:06:55;10.70;99.90
18597;DHT22;9428;50.950;6.912;2023-04-01T07:09:49;10.60;99.90
18597;DHT22;9428;50.950;6.912;2023-04-01T07:12:42;10.70;99.90
18597;DHT22;9428;50.950;6.912;2023-04-01T07:15:35;10.70;99.90
18597;DHT22;9428;50.950;6.912;2023-04-01T07:18:29;10.70;99.90
18597;DHT22;9428;50.950;6.912;2023-04-01T07:21:25;10.70;99.90
18597;DHT22;9428;50.950;6.912;2023-04-01T07:24:16;10.60;99.90
18597;DHT22;9428;50.950;6.912;2023-04-01T07:27:10;10.60;99.90
18597;DHT22;9428;50.950;6.912;2023-04-01T07:29:57;10.50;99.90
18597;DHT22;9428;50.950;6.912;2023-04-01T07:32:48;10.60;99.90
18597;DHT22;9428;50.950;6.912;2023-04-01T07:35:40;10.60;99.90
18597;DHT22;9428;50.950;6.912;2023-04-01T07:38:37;10.60;99.90
18597;DHT22;9428;50.950;6.912;2023-04-01T07:41:36;10.60;99.90
18597;DHT22;9428;50.950;6.912;2023-04-01T07:44:35;10.60;99.90
18597;DHT22;9428;50.950;6.912;2023-04-01T07:47:36;10.60;99.90
18597;DHT22;9428;50.950;6.912;2023-04-01T07:50:27;10.60;99.90
18597;DHT22;9428;50.950;6.912;2023-04-01T07:53:19;10.60;99.90
18597;DHT22;9428;50.950;6.912;2023-04-01T07:56:13;10.60;99.90
18597;DHT22;9428;50.950;6.912;2023-04-01T07:59:05;10.60;99.90
18597;DHT22;9428;50.950;6.912;2023-04-01T08:02:06;10.60;99.90
18597;DHT22;9428;50.950;6.912;2023-04-01T08:05:03;10.50;99.90
18597;DHT22;9428;50.950;6.912;2023-04-01T08:07:59;10.50;99.90
18597;DHT22;9428;50.950;6.912;2023-04-01T08:10:55;10.60;99.90
18597;DHT22;9428;50.950;6.912;2023-04-01T08:13:47;10.60;99.90
18597;DHT22;9428;50.950;6.912;2023-04-01T08:16:42;10.60;99.90
18597;DHT22;9428;50.950;6.912;2023-04-01T08:19:49;10.60;99.90
18597;DHT22;9428;50.950;6.912;2023-04-01T08:22:42;10.80;99.90
18597;DHT22;9428;50.950;6.912;2023-04-01T08:25:32;10.60;99.90
18597;DHT22;9428;50.950;6.912;2023-04-01T08:28:24;10.60;99.90
18597;DHT22;9428;50.950;6.912;2023-04-01T08:31:14;10.50;99.90
18597;DHT22;9428;50.950;6.912;2023-04-01T08:34:05;10.60;99.90
18597;DHT22;9428;50.950;6.912;2023-04-01T08:37:01;10.50;99.90
18597;DHT22;9428;50.950;6.912;2023-04-01T08:39:52;10.60;99.90
18597;DHT22;9428;50.950;6.912;2023-04-01T08:42:54;10.60;99.90
18597;DHT22;9428;50.950;6.912;2023-04-01T08:46:18;10.70;99.90
18597;DHT22;9428;50.950;6.912;2023-04-01T08:49:17;10.70;99.90
18597;DHT22;9428;50.950;6.912;2023-04-01T08:52:37;10.80;99.90
18597;DHT22;9428;50.950;6.912;2023-04-01T08:55:38;10.70;99.90
18597;DHT22;9428;50.950;6.912;2023-04-01T08:58:47;10.90;99.90
18597;DHT22;9428;50.950;6.912;2023-04-01T09:01:51;10.70;99.90
18597;DHT22;9428;50.950;6.912;2023-04-01T09:08:08;10.70;99.90
18597;DHT22;9428;50.950;6.912;2023-04-01T09:11:06;10.80;99.90
18597;DHT22;9428;50.950;6.912;2023-04-01T09:14:06;10.70;99.90
18597;DHT22;9428;50.950;6.912;2023-04-01T09:20:39;10.70;99.90
18597;DHT22;9428;50.950;6.912;2023-04-01T09:23:46;10.70;99.90
18597;DHT22;9428;50.950;6.912;2023-04-01T09:26:46;10.70;99.90
18597;DHT22;9428;50.950;6.912;2023-04-01T09:30:01;10.70;99.90
18597;DHT22;9428;50.950;6.912;2023-04-01T09:36:26;10.60;99.90
18597;DHT22;9428;50.950;6.912;2023-04-01T09:39:35;11.00;99.90
18597;DHT22;9428;50.950;6.912;2023-04-01T09:42:35;10.60;99.90
18597;DHT22;9428;50.950;6.912;2023-04-01T09:45:41;10.70;99.90
18597;DHT22;9428;50.950;6.912;2023-04-01T09:48:43;10.60;99.90
18597;DHT22;9428;50.950;6.912;2023-04-01T09:51:38;10.70;99.90
18597;DHT22;9428;50.950;6.912;2023-04-01T09:54:40;11.20;99.90
18597;DHT22;9428;50.950;6.912;2023-04-01T10:01:22;10.70;99.90
18597;DHT22;9428;50.950;6.912;2023-04-01T10:08:02;10.70;99.90
18597;DHT22;9428;50.950;6.912;2023-04-01T10:14:30;10.90;99.90
18597;DHT22;9428;50.950;6.912;2023-04-01T10:17:57;10.90;99.90
18597;DHT22;9428;50.950;6.912;2023-04-01T10:21:12;10.90;99.90
18597;DHT22;9428;50.950;6.912;2023-04-01T10:30:58;10.90;99.90
18597;DHT22;9428;50.950;6.912;2023-04-01T10:37:23;10.90;99.90
18597;DHT22;9428;50.950;6.912;2023-04-01T10:40:52;11.00;99.90
18597;DHT22;9428;50.950;6.912;2023-04-01T10:44:11;11.00;99.90
18597;DHT22;9428;50.950;6.912;2023-04-01T10:51:00;11.10;99.90
18597;DHT22;9428;50.950;6.912;2023-04-01T10:54:09;11.20;99.90
18597;DHT22;9428;50.950;6.912;2023-04-01T10:57:10;11.40;99.90
18597;DHT22;9428;50.950;6.912;2023-04-01T11:00:32;11.40;99.90
18597;DHT22;9428;50.950;6.912;2023-04-01T11:03:46;11.40;99.90
18597;DHT22;9428;50.950;6.912;2023-04-01T11:07:12;11.30;99.90
18597;DHT22;9428;50.950;6.912;2023-04-01T11:10:32;11.40;99.90
18597;DHT22;9428;50.950;6.912;2023-04-01T11:13:53;11.40;99.90
18597;DHT22;9428;50.950;6.912;2023-04-01T11:17:17;11.50;99.90
18597;DHT22;9428;50.950;6.912;2023-04-01T11:20:27;11.50;99.90
18597;DHT22;9428;50.950;6.912;2023-04-01T11:26:48;11.40;99.90
18597;DHT22;9428;50.950;6.912;2023-04-01T11:29:52;11.60;99.90
18597;DHT22;9428;50.950;6.912;2023-04-01T11:32:50;11.60;99.90
18597;DHT22;9428;50.950;6.912;2023-04-01T11:35:55;11.40;99.90
18597;DHT22;9428;50.950;6.912;2023-04-01T11:39:00;11.30;99.90
18597;DHT22;9428;50.950;6.912;2023-04-01T11:41:56;11.50;99.90
18597;DHT22;9428;50.950;6.912;2023-04-01T11:44:53;11.50;99.90
18597;DHT22;9428;50.950;6.912;2023-04-01T11:51:16;11.40;99.90
18597;DHT22;9428;50.950;6.912;2023-04-01T11:54:19;11.80;99.90
18597;DHT22;9428;50.950;6.912;2023-04-01T12:00:54;11.40;99.90
18597;DHT22;9428;50.950;6.912;2023-04-01T12:07:27;11.40;99.90
18597;DHT22;9428;50.950;6.912;2023-04-01T12:10:21;11.40;99.90
18597;DHT22;9428;50.950;6.912;2023-04-01T12:13:19;11.40;99.90
18597;DHT22;9428;50.950;6.912;2023-04-01T12:16:29;11.50;99.90
18597;DHT22;9428;50.950;6.912;2023-04-01T12:19:30;11.50;99.90
18597;DHT22;9428;50.950;6.912;2023-04-01T12:22:41;11.30;99.90
18597;DHT22;9428;50.950;6.912;2023-04-01T12:26:04;11.60;99.90
18597;DHT22;9428;50.950;6.912;2023-04-01T12:29:07;11.60;99.90
18597;DHT22;9428;50.950;6.912;2023-04-01T12:32:01;11.60;99.90
18597;DHT22;9428;50.950;6.912;2023-04-01T12:35:13;11.80;99.90
18597;DHT22;9428;50.950;6.912;2023-04-01T12:38:14;11.90;99.90
18597;DHT22;9428;50.950;6.912;2023-04-01T12:41:16;12.30;99.90
18597;DHT22;9428;50.950;6.912;2023-04-01T12:48:08;11.70;99.90
18597;DHT22;9428;50.950;6.912;2023-04-01T12:51:19;11.40;99.90
18597;DHT22;9428;50.950;6.912;2023-04-01T12:57:48;11.60;99.90
18597;DHT22;9428;50.950;6.912;2023-04-01T13:00:55;11.70;99.90
18597;DHT22;9428;50.950;6.912;2023-04-01T13:03:58;11.70;99.90
18597;DHT22;9428;50.950;6.912;2023-04-01T13:10:02;11.70;99.90
18597;DHT22;9428;50.950;6.912;2023-04-01T13:13:05;12.00;99.90
18597;DHT22;9428;50.950;6.912;2023-04-01T13:16:02;11.70;99.90
18597;DHT22;9428;50.950;6.912;2023-04-01T13:19:00;11.80;99.90
18597;DHT22;9428;50.950;6.912;2023-04-01T13:21:57;11.80;99.90
18597;DHT22;9428;50.950;6.912;2023-04-01T13:24:50;11.80;99.90
18597;DHT22;9428;50.950;6.912;2023-04-01T13:27:43;11.90;99.90
18597;DHT22;9428;50.950;6.912;2023-04-01T13:30:35;12.10;99.90
18597;DHT22;9428;50.950;6.912;2023-04-01T13:33:30;11.90;99.90
18597;DHT22;9428;50.950;6.912;2023-04-01T13:36:27;12.40;99.90
18597;DHT22;9428;50.950;6.912;2023-04-01T13:39:30;11.90;99.90
18597;DHT22;9428;50.950;6.912;2023-04-01T13:42:23;11.80;99.90
18597;DHT22;9428;50.950;6.912;2023-04-01T13:45:15;11.70;99.90
18597;DHT22;9428;50.950;6.912;2023-04-01T13:48:29;11.50;99.90
18597;DHT22;9428;50.950;6.912;2023-04-01T13:51:36;11.50;99.90
18597;DHT22;9428;50.950;6.912;2023-04-01T13:54:47;11.40;99.90
18597;DHT22;9428;50.950;6.912;2023-04-01T13:57:49;11.50;99.90
18597;DHT22;9428;50.950;6.912;2023-04-01T14:00:51;11.60;99.90
18597;DHT22;9428;50.950;6.912;2023-04-01T14:04:01;11.60;99.90
18597;DHT22;9428;50.950;6.912;2023-04-01T14:07:00;11.60;99.90
18597;DHT22;9428;50.950;6.912;2023-04-01T14:10:09;11.70;99.90
18597;DHT22;9428;50.950;6.912;2023-04-01T14:13:04;11.70;99.90
18597;DHT22;9428;50.950;6.912;2023-04-01T14:16:14;12.20;99.90
18597;DHT22;9428;50.950;6.912;2023-04-01T14:19:21;11.50;99.90
18597;DHT22;9428;50.950;6.912;2023-04-01T14:22:20;11.50;99.90
18597;DHT22;9428;50.950;6.912;2023-04-01T14:25:32;11.60;99.90
18597;DHT22;9428;50.950;6.912;2023-04-01T14:28:27;11.40;99.90
18597;DHT22;9428;50.950;6.912;2023-04-01T14:31:30;11.70;99.90
18597;DHT22;9428;50.950;6.912;2023-04-01T14:34:38;11.30;99.90
18597;DHT22;9428;50.950;6.912;2023-04-01T14:37:55;11.40;99.90
18597;DHT22;9428;50.950;6.912;2023-04-01T14:41:08;11.40;99.90
18597;DHT22;9428;50.950;6.912;2023-04-01T14:47:46;11.10;99.90
18597;DHT22;9428;50.950;6.912;2023-04-01T14:50:41;11.20;99.90
18597;DHT22;9428;50.950;6.912;2023-04-01T14:53:33;11.20;99.90
18597;DHT22;9428;50.950;6.912;2023-04-01T14:56:40;11.20;99.90
18597;DHT22;9428;50.950;6.912;2023-04-01T14:59:29;11.40;99.90
18597;DHT22;9428;50.950;6.912;2023-04-01T15:02:37;11.40;99.90
18597;DHT22;9428;50.950;6.912;2023-04-01T15:05:44;11.40;99.90
18597;DHT22;9428;50.950;6.912;2023-04-01T15:08:47;11.60;99.90
18597;DHT22;9428;50.950;6.912;2023-04-01T15:11:49;11.80;99.90
18597;DHT22;9428;50.950;6.912;2023-04-01T15:15:15;11.30;99.90
18597;DHT22;9428;50.950;6.912;2023-04-01T15:18:09;11.40;99.90
18597;DHT22;9428;50.950;6.912;2023-04-01T15:21:11;12.10;99.90
18597;DHT22;9428;50.950;6.912;2023-04-01T15:24:07;11.40;99.90
18597;DHT22;9428;50.950;6.912;2023-04-01T15:27:12;11.40;99.90
18597;DHT22;9428;50.950;6.912;2023-04-01T15:30:27;11.40;99.90
18597;DHT22;9428;50.950;6.912;2023-04-01T15:33:29;11.50;99.90
18597;DHT22;9428;50.950;6.912;2023-04-01T15:36:30;11.50;99.90
18597;DHT22;9428;50.950;6.912;2023-04-01T15:39:27;11.40;99.90
18597;DHT22;9428;50.950;6.912;2023-04-01T15:42:30;11.50;99.90
18597;DHT22;9428;50.950;6.912;2023-04-01T15:45:31;11.50;99.90
18597;DHT22;9428;50.950;6.912;2023-04-01T15:48:42;11.40;99.90
18597;DHT22;9428;50.950;6.912;2023-04-01T15:55:00;11.50;99.90
18597;DHT22;9428;50.950;6.912;2023-04-01T15:58:05;11.40;99.90
18597;DHT22;9428;50.950;6.912;2023-04-01T16:00:57;11.40;99.90
18597;DHT22;9428;50.950;6.912;2023-04-01T16:03:55;11.30;99.90
18597;DHT22;9428;50.950;6.912;2023-04-01T16:06:56;11.40;99.90
18597;DHT22;9428;50.950;6.912;2023-04-01T16:10:09;11.30;99.90
18597;DHT22;9428;50.950;6.912;2023-04-01T16:13:17;11.30;99.90
18597;DHT22;9428;50.950;6.912;2023-04-01T16:16:14;11.40;99.90
18597;DHT22;9428;50.950;6.912;2023-04-01T16:22:14;11.90;99.90
18597;DHT22;9428;50.950;6.912;2023-04-01T16:25:32;11.50;99.90
18597;DHT22;9428;50.950;6.912;2023-04-01T16:28:27;11.50;99.90
18597;DHT22;9428;50.950;6.912;2023-04-01T16:31:29;12.00;99.90
18597;DHT22;9428;50.950;6.912;2023-04-01T16:34:21;11.40;99.90
18597;DHT22;9428;50.950;6.912;2023-04-01T16:37:14;11.20;99.90
18597;DHT22;9428;50.950;6.912;2023-04-01T16:40:14;11.70;99.90
18597;DHT22;9428;50.950;6.912;2023-04-01T16:43:10;11.00;99.90
18597;DHT22;9428;50.950;6.912;2023-04-01T16:46:33;10.90;99.90
18597;DHT22;9428;50.950;6.912;2023-04-01T16:49:39;11.00;99.90
18597;DHT22;9428;50.950;6.912;2023-04-01T16:52:42;11.20;99.90
18597;DHT22;9428;50.950;6.912;2023-04-01T16:55:43;10.80;99.90
18597;DHT22;9428;50.950;6.912;2023-04-01T16:58:35;10.90;99.90
18597;DHT22;9428;50.950;6.912;2023-04-01T17:01:27;11.00;99.90
18597;DHT22;9428;50.950;6.912;2023-04-01T17:04:20;11.10;99.90
18597;DHT22;9428;50.950;6.912;2023-04-01T17:07:24;11.10;99.90
18597;DHT22;9428;50.950;6.912;2023-04-01T17:10:37;11.10;99.90
18597;DHT22;9428;50.950;6.912;2023-04-01T17:13:41;11.10;99.90
18597;DHT22;9428;50.950;6.912;2023-04-01T17:16:52;11.00;99.90
18597;DHT22;9428;50.950;6.912;2023-04-01T17:19:52;11.00;99.90
18597;DHT22;9428;50.950;6.912;2023-04-01T17:22:49;11.00;99.90
18597;DHT22;9428;50.950;6.912;2023-04-01T17:25:57;10.90;99.90
18597;DHT22;9428;50.950;6.912;2023-04-01T17:28:53;10.80;99.90
18597;DHT22;9428;50.950;6.912;2023-04-01T17:31:51;10.80;99.90
18597;DHT22;9428;50.950;6.912;2023-04-01T17:34:53;10.90;99.90
18597;DHT22;9428;50.950;6.912;2023-04-01T17:37:49;10.70;99.90
18597;DHT22;9428;50.950;6.912;2023-04-01T17:40:49;11.20;99.90
18597;DHT22;9428;50.950;6.912;2023-04-01T17:43:43;10.70;99.90
18597;DHT22;9428;50.950;6.912;2023-04-01T17:46:41;10.70;99.90
18597;DHT22;9428;50.950;6.912;2023-04-01T17:49:42;10.70;99.90
18597;DHT22;9428;50.950;6.912;2023-04-01T17:52:33;10.70;99.90
18597;DHT22;9428;50.950;6.912;2023-04-01T17:55:48;10.70;99.90
18597;DHT22;9428;50.950;6.912;2023-04-01T17:58:45;10.90;99.90
18597;DHT22;9428;50.950;6.912;2023-04-01T18:01:45;10.70;99.90
18597;DHT22;9428;50.950;6.912;2023-04-01T18:04:47;11.30;99.90
18597;DHT22;9428;50.950;6.912;2023-04-01T18:08:02;10.70;99.90
18597;DHT22;9428;50.950;6.912;2023-04-01T18:11:00;10.60;99.90
18597;DHT22;9428;50.950;6.912;2023-04-01T18:17:17;10.70;99.90
18597;DHT22;9428;50.950;6.912;2023-04-01T18:23:26;10.50;99.90
18597;DHT22;9428;50.950;6.912;2023-04-01T18:26:21;10.50;99.90
18597;DHT22;9428;50.950;6.912;2023-04-01T18:29:17;10.60;99.90
18597;DHT22;9428;50.950;6.912;2023-04-01T18:32:22;10.40;99.90
18597;DHT22;9428;50.950;6.912;2023-04-01T18:35:29;10.30;99.90
18597;DHT22;9428;50.950;6.912;2023-04-01T18:38:23;10.30;99.90
18597;DHT22;9428;50.950;6.912;2023-04-01T18:41:14;11.10;99.90
18597;DHT22;9428;50.950;6.912;2023-04-01T18:44:16;10.40;99.90
18597;DHT22;9428;50.950;6.912;2023-04-01T18:47:20;10.40;99.90
18597;DHT22;9428;50.950;6.912;2023-04-01T18:50:18;10.40;99.90
18597;DHT22;9428;50.950;6.912;2023-04-01T18:53:20;10.30;99.90
18597;DHT22;9428;50.950;6.912;2023-04-01T18:56:13;10.70;99.90
18597;DHT22;9428;50.950;6.912;2023-04-01T18:59:04;10.30;99.90
18597;DHT22;9428;50.950;6.912;2023-04-01T19:02:00;10.30;99.90
18597;DHT22;9428;50.950;6.912;2023-04-01T19:04:56;10.30;99.90
18597;DHT22;9428;50.950;6.912;2023-04-01T19:07:46;10.30;99.90
18597;DHT22;9428;50.950;6.912;2023-04-01T19:10:44;10.40;99.90
18597;DHT22;9428;50.950;6.912;2023-04-01T19:13:43;10.40;99.90
18597;DHT22;9428;50.950;6.912;2023-04-01T19:16:44;10.90;99.90
18597;DHT22;9428;50.950;6.912;2023-04-01T19:19:40;11.00;99.90
18597;DHT22;9428;50.950;6.912;2023-04-01T19:22:48;11.10;99.90
18597;DHT22;9428;50.950;6.912;2023-04-01T19:25:43;10.40;99.90
18597;DHT22;9428;50.950;6.912;2023-04-01T19:28:42;10.30;99.90
18597;DHT22;9428;50.950;6.912;2023-04-01T19:31:49;10.70;99.90
18597;DHT22;9428;50.950;6.912;2023-04-01T19:34:48;10.80;99.90
18597;DHT22;9428;50.950;6.912;2023-04-01T19:37:39;11.20;99.90
18597;DHT22;9428;50.950;6.912;2023-04-01T19:40:43;10.30;99.90
18597;DHT22;9428;50.950;6.912;2023-04-01T19:43:46;10.30;99.90
18597;DHT22;9428;50.950;6.912;2023-04-01T19:46:39;10.40;99.90
18597;DHT22;9428;50.950;6.912;2023-04-01T19:49:41;10.80;99.90
18597;DHT22;9428;50.950;6.912;2023-04-01T19:52:36;10.40;99.90
18597;DHT22;9428;50.950;6.912;2023-04-01T19:55:34;10.30;99.90
18597;DHT22;9428;50.950;6.912;2023-04-01T19:58:31;10.20;99.90
18597;DHT22;9428;50.950;6.912;2023-04-01T20:01:23;10.70;99.90
18597;DHT22;9428;50.950;6.912;2023-04-01T20:04:14;10.20;99.90
18597;DHT22;9428;50.950;6.912;2023-04-01T20:07:08;10.60;99.90
18597;DHT22;9428;50.950;6.912;2023-04-01T20:10:00;10.00;99.90
18597;DHT22;9428;50.950;6.912;2023-04-01T20:12:57;10.10;99.90
18597;DHT22;9428;50.950;6.912;2023-04-01T20:15:58;10.10;99.90